.
WxDataArchive / Data Records for 2011-03-03
2011-03-02 March 2011 2011-03-04

Data Records for Thursday, 03 March 2011

Time	Temp	Chill	HIndex	Humid	Dewpt	 Wind 	HiWind	WindDir	Rain 	Barom 
-----	----	-----	------	-----	-----	------	------	-------	-----	----- 
00:00	26.1	26.1	26.1	70	17.7	1	2	90	0.00	30.511 
00:05	26.1	26.1	26.1	70	17.7	1	3	90	0.00	30.511 
00:10	26.1	26.1	26.1	71	18.0	1	3	90	0.00	30.511 
00:15	26.1	26.1	26.1	71	18.0	1	3	90	0.00	30.503 
00:20	26.1	26.1	26.1	71	18.0	1	4	68	0.00	30.503 
00:25	26.1	26.1	26.1	72	18.3	1	2	68	0.00	30.503 
00:30	26.1	26.1	26.1	72	18.3	1	2	68	0.00	30.510 
00:35	26.0	26.0	26.0	72	18.2	0	2	68	0.00	30.510 
00:40	26.0	26.0	26.0	72	18.2	0	2	68	0.00	30.510 
00:45	25.8	25.8	25.8	72	18.0	0	0	---	0.00	30.512 
00:50	25.6	25.6	25.6	73	18.2	0	1	68	0.00	30.512 
00:55	25.6	25.6	25.6	73	18.2	0	1	68	0.00	30.512 
01:00	25.6	25.6	25.6	73	18.2	0	2	68	0.00	30.506 
01:05	25.6	25.6	25.6	73	18.2	1	3	68	0.00	30.506 
01:10	25.7	25.7	25.7	73	18.3	0	1	68	0.00	30.506 
01:15	25.6	25.6	25.6	74	18.5	0	2	68	0.00	30.510 
01:20	25.6	25.6	25.6	74	18.5	0	1	68	0.00	30.510 
01:25	25.6	25.6	25.6	74	18.5	0	0	---	0.00	30.510 
01:30	25.4	25.4	25.4	74	18.3	0	0	---	0.00	30.518 
01:35	25.3	25.3	25.3	75	18.5	0	0	---	0.00	30.518 
01:40	25.3	25.3	25.3	76	18.8	0	1	68	0.00	30.518 
01:45	25.3	25.3	25.3	76	18.8	0	2	68	0.00	30.524 
01:50	25.3	25.3	25.3	77	19.1	1	2	68	0.00	30.524 
01:55	25.1	25.1	25.1	77	18.9	0	2	68	0.00	30.524 
02:00	25.1	25.1	25.1	77	18.9	1	3	68	0.00	30.515 
02:05	25.0	25.0	25.0	77	18.8	1	2	68	0.00	30.515 
02:10	25.0	25.0	25.0	77	18.8	1	3	68	0.00	30.515 
02:15	25.0	25.0	25.0	78	19.1	0	2	68	0.00	30.517 
02:20	25.0	25.0	25.0	78	19.1	1	3	112	0.00	30.517 
02:25	25.0	25.0	25.0	78	19.1	1	3	90	0.00	30.517 
02:30	25.0	25.0	25.0	78	19.1	1	3	90	0.00	30.521 
02:35	24.8	24.8	24.8	79	19.2	1	3	135	0.00	30.521 
02:40	24.8	24.8	24.8	79	19.2	0	2	135	0.00	30.521 
02:45	24.7	24.7	24.7	79	19.1	1	2	135	0.00	30.521 
02:50	24.7	24.7	24.7	79	19.1	1	2	135	0.00	30.521 
02:55	24.5	24.5	24.5	79	18.9	1	2	135	0.00	30.521 
03:00	24.5	24.5	24.5	80	19.2	2	5	135	0.00	30.513 
03:05	24.5	24.5	24.5	80	19.2	2	4	90	0.00	30.513 
03:10	24.4	24.4	24.4	80	19.1	1	4	90	0.00	30.513 
03:15	24.4	24.4	24.4	81	19.4	2	4	90	0.00	30.513 
03:20	24.4	24.4	24.4	81	19.4	1	4	90	0.00	30.513 
03:25	24.2	24.2	24.2	81	19.2	1	4	90	0.00	30.513 
03:30	24.2	24.2	24.2	82	19.5	1	6	90	0.00	30.509 
03:35	24.2	24.2	24.2	83	19.8	1	5	90	0.00	30.509 
03:40	24.2	24.2	24.2	83	19.8	2	4	112	0.00	30.509 
03:45	24.1	24.1	24.1	84	20.0	1	4	90	0.00	30.502 
03:50	24.1	24.1	24.1	84	20.0	1	3	90	0.00	30.502 
03:55	24.1	24.1	24.1	84	20.0	1	5	90	0.00	30.502 
04:00	23.9	23.9	23.9	84	19.8	1	3	90	0.00	30.510 
04:05	23.9	23.9	23.9	85	20.1	1	3	90	0.00	30.510 
04:10	23.9	23.9	23.9	85	20.1	1	4	90	0.00	30.510 
04:15	23.9	23.9	23.9	85	20.1	1	3	90	0.00	30.514 
04:20	23.8	23.8	23.8	85	20.0	1	4	90	0.00	30.514 
04:25	23.8	23.8	23.8	86	20.2	1	3	90	0.00	30.514 
04:30	23.8	23.8	23.8	86	20.2	2	5	90	0.00	30.519 
04:35	23.8	23.8	23.8	86	20.2	2	5	90	0.00	30.519 
04:40	23.8	23.8	23.8	86	20.2	2	6	112	0.00	30.519 
04:45	23.8	23.8	23.8	86	20.2	2	5	90	0.00	30.524 
04:50	23.8	23.8	23.8	86	20.2	2	4	112	0.00	30.524 
04:55	23.8	23.8	23.8	86	20.2	2	4	90	0.00	30.524 
05:00	23.8	23.8	23.8	86	20.2	2	6	90	0.00	30.521 
05:05	23.8	23.8	23.8	87	20.5	2	6	90	0.00	30.521 
05:10	23.9	23.9	23.9	87	20.6	3	7	90	0.00	30.521 
05:15	23.9	23.9	23.9	86	20.3	3	7	90	0.00	30.524 
05:20	23.9	23.9	23.9	86	20.3	2	6	112	0.00	30.524 
05:25	23.9	23.9	23.9	86	20.3	3	7	112	0.00	30.524 
05:30	23.9	23.9	23.9	86	20.3	3	7	90	0.00	30.519 
05:35	23.9	18.7	23.9	86	20.3	4	7	90	0.00	30.519 
05:40	23.9	23.9	23.9	86	20.3	3	9	90	0.00	30.519 
05:45	23.9	23.9	23.9	86	20.3	3	10	90	0.00	30.512 
05:50	23.9	23.9	23.9	86	20.3	3	9	90	0.00	30.512 
05:55	23.9	18.7	23.9	86	20.3	4	10	90	0.00	30.512 
06:00	23.9	18.7	23.9	85	20.1	4	9	90	0.00	30.516 
06:05	23.9	23.9	23.9	85	20.1	3	8	90	0.00	30.516 
06:10	23.9	18.7	23.9	85	20.1	4	10	90	0.00	30.516 
06:15	23.9	18.7	23.9	85	20.1	4	10	90	0.00	30.520 
06:20	23.9	18.7	23.9	84	19.8	4	9	90	0.00	30.520 
06:25	23.8	17.4	23.8	84	19.7	5	10	90	0.00	30.520 
06:30	23.8	18.6	23.8	84	19.7	4	10	90	0.00	30.511 
06:35	23.6	18.4	23.6	84	19.5	4	9	90	0.00	30.511 
06:40	23.6	18.4	23.6	84	19.5	4	9	90	0.00	30.511 
06:45	23.6	18.4	23.6	84	19.5	4	9	112	0.00	30.517 
06:50	23.6	18.4	23.6	84	19.5	4	7	90	0.00	30.517 
06:55	23.6	23.6	23.6	83	19.2	3	7	90	0.00	30.517 
07:00	23.6	18.4	23.6	83	19.2	4	11	90	0.00	30.518 
07:05	23.6	23.6	23.6	83	19.2	3	7	90	0.00	30.518 
07:10	23.6	23.6	23.6	83	19.2	3	6	112	0.00	30.518 
07:15	23.6	18.4	23.6	83	19.2	4	7	90	0.00	30.524 
07:20	23.6	23.6	23.6	83	19.2	3	12	90	0.00	30.524 
07:25	23.6	23.6	23.6	82	18.9	3	7	90	0.00	30.524 
07:30	23.6	23.6	23.6	82	18.9	3	8	90	0.00	30.529 
07:35	23.8	23.8	23.8	82	19.1	3	6	90	0.00	30.529 
07:40	23.9	23.9	23.9	81	18.9	3	11	90	0.00	30.529 
07:45	24.1	17.8	24.1	80	18.8	5	10	112	0.00	30.535 
07:50	24.4	19.3	24.4	79	18.8	4	7	90	0.00	30.535 
07:55	24.4	18.1	24.4	78	18.5	5	10	90	0.00	30.535 
08:00	24.5	18.3	24.5	77	18.3	5	11	90	0.00	30.531 
08:05	24.7	19.6	24.7	77	18.5	4	11	90	0.00	30.531 
08:10	24.8	19.8	24.8	76	18.3	4	10	112	0.00	30.531 
08:15	25.0	20.0	25.0	76	18.5	4	12	90	0.00	30.541 
08:20	25.1	18.0	25.1	74	18.0	6	14	90	0.00	30.541 
08:25	25.4	20.5	25.4	74	18.3	4	9	90	0.00	30.541 
08:30	25.7	19.7	25.7	73	18.3	5	14	90	0.00	30.544 
08:35	25.7	18.7	25.7	73	18.3	6	13	90	0.00	30.544 
08:40	25.7	18.7	25.7	73	18.3	6	15	90	0.00	30.544 
08:45	25.8	19.8	25.8	73	18.4	5	11	90	0.00	30.546 
08:50	26.0	20.0	26.0	73	18.6	5	11	90	0.00	30.546 
08:55	26.1	19.2	26.1	72	18.3	6	12	90	0.00	30.546 
09:00	26.3	19.4	26.3	72	18.5	6	13	90	0.00	30.546 
09:05	26.6	20.7	26.6	71	18.5	5	10	90	0.00	30.546 
09:10	26.9	21.1	26.9	70	18.4	5	10	90	0.00	30.546 
09:15	27.3	22.6	27.3	70	18.8	4	10	112	0.00	30.537 
09:20	27.5	20.9	27.5	68	18.3	6	14	90	0.00	30.537 
09:25	27.6	21.9	27.6	68	18.4	5	11	112	0.00	30.537 
09:30	27.6	20.2	27.6	67	18.1	7	13	90	0.00	30.534 
09:35	27.6	21.0	27.6	65	17.4	6	13	90	0.00	30.534 
09:40	27.8	20.4	27.8	66	17.9	7	13	90	0.00	30.534 
09:45	27.9	21.3	27.9	65	17.7	6	11	90	0.00	30.525 
09:50	28.2	20.9	28.2	64	17.6	7	15	90	0.00	30.525 
09:55	28.4	21.9	28.4	63	17.4	6	12	112	0.00	30.525 
10:00	28.5	22.1	28.5	64	17.9	6	14	112	0.00	30.531 
10:05	29.0	23.6	29.0	64	18.4	5	18	112	0.00	30.531 
10:10	29.4	24.0	29.4	63	18.4	5	11	90	0.00	30.531 
10:15	29.7	24.4	29.7	63	18.7	5	10	112	0.00	30.533 
10:20	29.5	23.3	29.5	63	18.5	6	12	90	0.00	30.533 
10:25	29.7	23.5	29.7	62	18.3	6	14	112	0.00	30.533 
10:30	29.8	23.6	29.8	62	18.4	6	12	112	0.00	30.536 
10:35	29.8	23.6	29.8	60	17.6	6	13	112	0.00	30.536 
10:40	30.0	23.8	30.0	60	17.8	6	13	90	0.00	30.536 
10:45	30.1	23.2	30.1	60	17.9	7	15	112	0.00	30.533 
10:50	30.3	25.1	30.3	59	17.7	5	13	90	0.00	30.533 
10:55	30.4	26.2	30.4	57	17.0	4	12	112	0.00	30.533 
11:00	30.6	23.8	30.6	58	17.6	7	13	90	0.00	30.520 
11:05	30.4	24.3	30.4	58	17.4	6	13	90	0.00	30.520 
11:10	30.6	24.6	30.6	58	17.6	6	12	90	0.00	30.520 
11:15	30.9	25.8	30.9	59	18.3	5	9	112	0.00	30.518 
11:20	31.3	26.3	31.3	58	18.3	5	12	90	0.00	30.518 
11:25	31.5	27.5	31.5	57	18.0	4	10	90	0.00	30.518 
11:30	31.6	25.8	31.6	58	18.5	6	11	90	0.00	30.510 
11:35	31.8	26.0	31.8	56	17.9	6	12	90	0.00	30.510 
11:40	31.6	26.6	31.6	57	18.1	5	13	112	0.00	30.510 
11:45	31.8	26.0	31.8	57	18.3	6	12	112	0.00	30.502 
11:50	31.6	25.0	31.6	58	18.5	7	13	90	0.00	30.502 
11:55	31.8	26.0	31.8	57	18.3	6	12	112	0.00	30.502 
12:00	31.8	26.0	31.8	57	18.3	6	14	112	0.00	30.489 
12:05	32.2	27.3	32.2	58	19.1	5	10	90	0.00	30.489 
12:10	32.4	26.0	32.4	56	18.5	7	14	90	0.00	30.489 
12:15	32.4	26.7	32.4	56	18.5	6	15	90	0.00	30.488 
12:20	32.2	26.5	32.2	58	19.1	6	14	90	0.00	30.488 
12:25	32.5	27.7	32.5	57	19.0	5	12	112	0.00	30.488 
12:30	32.8	28.0	32.8	57	19.3	5	11	90	0.00	30.471 
12:35	33.1	27.5	33.1	55	18.7	6	13	90	0.00	30.471 
12:40	33.1	27.5	33.1	55	18.7	6	14	90	0.00	30.471 
12:45	33.2	28.5	33.2	57	19.6	5	13	112	0.00	30.466 
12:50	33.4	27.2	33.4	56	19.4	7	16	90	0.00	30.466 
12:55	33.8	29.2	33.8	57	20.2	5	10	90	0.00	30.466 
13:00	34.0	27.9	34.0	55	19.6	7	16	90	0.00	30.450 
13:05	33.8	28.4	33.8	55	19.4	6	15	90	0.00	30.450 
13:10	34.0	28.6	34.0	54	19.1	6	14	90	0.00	30.450 
13:15	34.0	27.9	34.0	56	20.0	7	16	90	0.00	30.442 
13:20	34.1	28.7	34.1	56	20.1	6	13	112	0.00	30.442 
13:25	34.3	28.3	34.3	56	20.3	7	15	90	0.00	30.442 
13:30	34.3	27.6	34.3	54	19.4	8	13	90	0.00	30.429 
13:35	34.3	27.6	34.3	55	19.8	8	14	112	0.00	30.429 
13:40	34.3	28.3	34.3	54	19.4	7	14	90	0.00	30.429 
13:45	34.6	28.6	34.6	53	19.2	7	12	112	0.00	30.423 
13:50	35.0	30.6	35.0	54	20.1	5	12	112	0.00	30.423 
13:55	35.5	29.7	35.5	54	20.5	7	11	90	0.00	30.423 
14:00	35.3	28.9	35.3	53	19.9	8	15	90	0.00	30.409 
14:05	35.3	29.5	35.3	52	19.5	7	14	112	0.00	30.409 
14:10	35.3	30.2	35.3	53	19.9	6	14	112	0.00	30.409 
14:15	35.3	29.5	35.3	52	19.5	7	13	90	0.00	30.398 
14:20	35.6	31.3	35.6	52	19.7	5	10	90	0.00	30.398 
14:25	35.8	30.8	35.8	53	20.4	6	13	90	0.00	30.398 
14:30	35.9	30.2	35.9	53	20.5	7	13	90	0.00	30.385 
14:35	35.8	30.1	35.8	52	19.9	7	13	112	0.00	30.385 
14:40	35.5	29.1	35.5	51	19.2	8	13	112	0.00	30.385 
14:45	35.8	30.8	35.8	51	19.5	6	12	90	0.00	30.377 
14:50	36.2	30.6	36.2	52	20.3	7	14	90	0.00	30.377 
14:55	36.2	30.0	36.2	51	19.8	8	13	112	0.00	30.377 
15:00	36.3	31.4	36.3	52	20.4	6	12	90	0.00	30.360 
15:05	36.6	31.7	36.6	54	21.5	6	11	112	0.00	30.360 
15:10	36.5	30.3	36.5	53	21.0	8	14	112	0.00	30.360 
15:15	36.6	31.7	36.6	52	20.7	6	13	112	0.00	30.357 
15:20	36.6	31.0	36.6	50	19.7	7	14	90	0.00	30.357 
15:25	36.8	31.9	36.8	51	20.4	6	14	112	0.00	30.357 
15:30	37.2	32.4	37.2	50	20.3	6	16	90	0.00	30.342 
15:35	36.9	31.4	36.9	50	20.0	7	15	90	0.00	30.342 
15:40	36.8	31.3	36.8	53	21.3	7	15	90	0.00	30.342 
15:45	36.6	30.4	36.6	51	20.2	8	14	90	0.00	30.334 
15:50	36.6	31.0	36.6	52	20.7	7	16	112	0.00	30.334 
15:55	36.9	32.8	36.9	52	20.9	5	11	90	0.00	30.334 
16:00	36.9	32.1	36.9	52	20.9	6	12	90	0.00	30.326 
16:05	36.9	31.4	36.9	52	20.9	7	17	90	0.00	30.326 
16:10	36.9	32.1	36.9	52	20.9	6	13	90	0.00	30.326 
16:15	36.8	31.3	36.8	51	20.4	7	14	90	0.00	30.321 
16:20	36.8	31.3	36.8	52	20.8	7	13	112	0.00	30.321 
16:25	36.9	32.8	36.9	54	21.8	5	13	90	0.00	30.321 
16:30	36.8	31.9	36.8	53	21.3	6	14	90	0.00	30.316 
16:35	36.8	31.3	36.8	53	21.3	7	13	90	0.00	30.316 
16:40	36.8	31.9	36.8	55	22.2	6	13	90	0.00	30.316 
16:45	36.6	31.7	36.6	54	21.5	6	13	90	0.00	30.312 
16:50	36.6	31.7	36.6	55	22.0	6	13	90	0.00	30.312 
16:55	36.5	31.6	36.5	55	21.9	6	12	90	0.00	30.312 
17:00	36.6	32.5	36.6	55	22.0	5	10	112	0.00	30.308 
17:05	36.6	32.5	36.6	56	22.4	5	13	90	0.00	30.308 
17:10	36.6	33.4	36.6	56	22.4	4	9	112	0.00	30.308 
17:15	36.5	32.4	36.5	56	22.3	5	10	90	0.00	30.313 
17:20	36.5	31.6	36.5	56	22.3	6	13	90	0.00	30.313 
17:25	36.5	32.4	36.5	57	22.7	5	11	90	0.00	30.313 
17:30	36.3	32.1	36.3	56	22.1	5	9	112	0.00	30.301 
17:35	36.3	31.4	36.3	55	21.7	6	13	112	0.00	30.301 
17:40	36.2	30.6	36.2	56	22.0	7	15	112	0.00	30.301 
17:45	36.2	32.0	36.2	56	22.0	5	14	90	0.00	30.300 
17:50	36.0	31.0	36.0	56	21.8	6	13	112	0.00	30.300 
17:55	36.0	31.8	36.0	56	21.8	5	10	90	0.00	30.300 
18:00	35.9	31.7	35.9	56	21.8	5	9	90	0.00	30.306 
18:05	35.9	31.7	35.9	57	22.2	5	13	90	0.00	30.306 
18:10	35.6	31.3	35.6	57	21.9	5	10	112	0.00	30.306 
18:15	35.5	31.2	35.5	57	21.8	5	12	90	0.00	30.295 
18:20	35.5	31.2	35.5	57	21.8	5	11	90	0.00	30.295 
18:25	35.3	31.9	35.3	57	21.6	4	9	90	0.00	30.295 
18:30	35.2	30.8	35.2	57	21.5	5	11	112	0.00	30.296 
18:35	35.2	30.8	35.2	57	21.5	5	10	90	0.00	30.296 
18:40	35.0	30.6	35.0	57	21.3	5	9	90	0.00	30.296 
18:45	35.0	31.5	35.0	57	21.3	4	10	90	0.00	30.298 
18:50	35.0	35.0	35.0	58	21.7	3	6	90	0.00	30.298 
18:55	34.9	30.5	34.9	57	21.2	5	12	90	0.00	30.298 
19:00	34.9	31.4	34.9	58	21.6	4	9	90	0.00	30.298 
19:05	34.7	31.2	34.7	59	21.9	4	10	112	0.00	30.298 
19:10	34.6	31.1	34.6	60	22.2	4	7	112	0.00	30.298 
19:15	34.4	34.4	34.4	61	22.4	3	7	90	0.00	30.297 
19:20	34.3	34.3	34.3	62	22.7	3	7	90	0.00	30.297 
19:25	34.1	34.1	34.1	63	22.8	3	9	90	0.00	30.297 
19:30	34.0	34.0	34.0	63	22.7	3	9	90	0.00	30.299 
19:35	34.0	34.0	34.0	64	23.1	3	7	90	0.00	30.299 
19:40	33.8	33.8	33.8	64	22.9	3	7	112	0.00	30.299 
19:45	33.7	33.7	33.7	64	22.8	3	7	112	0.00	30.297 
19:50	33.7	33.7	33.7	65	23.2	3	7	90	0.00	30.297 
19:55	33.5	29.8	33.5	65	23.0	4	9	90	0.00	30.297 
20:00	33.4	29.7	33.4	66	23.3	4	7	90	0.00	30.293 
20:05	33.2	33.2	33.2	66	23.1	3	7	90	0.00	30.293 
20:10	33.2	29.5	33.2	66	23.1	4	9	90	0.00	30.293 
20:15	33.2	29.5	33.2	66	23.1	4	6	90	0.00	30.286 
20:20	33.2	29.5	33.2	67	23.4	4	7	90	0.00	30.286 
20:25	33.2	29.5	33.2	67	23.4	4	9	90	0.00	30.286 
20:30	33.1	29.3	33.1	67	23.4	4	8	90	0.00	30.280 
20:35	33.1	33.1	33.1	68	23.7	3	6	90	0.00	30.280 
20:40	32.9	32.9	32.9	68	23.5	3	9	90	0.00	30.280 
20:45	32.9	32.9	32.9	68	23.5	3	5	90	0.00	30.278 
20:50	32.9	32.9	32.9	68	23.5	3	7	90	0.00	30.278 
20:55	32.9	32.9	32.9	67	23.2	3	8	90	0.00	30.278 
21:00	33.1	33.1	33.1	67	23.4	3	7	112	0.00	30.275 
21:05	33.1	33.1	33.1	67	23.4	3	7	90	0.00	30.275 
21:10	33.1	29.3	33.1	67	23.4	4	10	90	0.00	30.275 
21:15	33.1	29.3	33.1	67	23.4	4	9	90	0.00	30.266 
21:20	33.1	33.1	33.1	67	23.4	3	6	90	0.00	30.266 
21:25	33.1	29.3	33.1	67	23.4	4	11	90	0.00	30.266 
21:30	33.1	29.3	33.1	67	23.4	4	8	90	0.00	30.263 
21:35	32.9	32.9	32.9	67	23.2	3	7	90	0.00	30.263 
21:40	32.9	32.9	32.9	68	23.5	3	7	90	0.00	30.263 
21:45	32.9	29.1	32.9	68	23.5	4	9	90	0.00	30.262 
21:50	32.9	32.9	32.9	68	23.5	3	6	90	0.00	30.262 
21:55	32.8	32.8	32.8	68	23.4	2	5	112	0.00	30.262 
22:00	32.8	32.8	32.8	68	23.4	3	7	90	0.00	30.262 
22:05	32.8	32.8	32.8	68	23.4	3	7	112	0.00	30.262 
22:10	32.8	32.8	32.8	68	23.4	2	4	112	0.00	30.262 
22:15	32.7	32.7	32.7	69	23.7	1	5	112	0.00	30.260 
22:20	32.7	32.7	32.7	69	23.7	2	5	90	0.00	30.260 
22:25	32.5	32.5	32.5	70	23.8	3	6	90	0.00	30.260 
22:30	32.4	32.4	32.4	70	23.7	2	6	112	0.00	30.256 
22:35	32.2	32.2	32.2	71	23.9	1	5	90	0.00	30.256 
22:40	32.2	32.2	32.2	71	23.9	2	7	90	0.00	30.256 
22:45	32.1	32.1	32.1	72	24.1	2	5	90	0.00	30.251 
22:50	31.9	31.9	31.9	72	23.9	3	7	90	0.00	30.251 
22:55	31.8	31.8	31.8	73	24.1	2	7	68	0.00	30.251 
23:00	31.8	31.8	31.8	73	24.1	2	6	90	0.00	30.249 
23:05	31.8	31.8	31.8	72	23.8	3	7	90	0.00	30.249 
23:10	31.8	31.8	31.8	72	23.8	2	4	112	0.00	30.249 
23:15	31.8	31.8	31.8	72	23.8	3	6	112	0.00	30.241 
23:20	31.8	31.8	31.8	71	23.5	2	4	112	0.00	30.241 
23:25	31.8	31.8	31.8	71	23.5	2	6	112	0.00	30.241 
23:30	31.8	31.8	31.8	71	23.5	2	6	90	0.00	30.241 
23:35	31.8	31.8	31.8	71	23.5	2	5	90	0.00	30.241 
23:40	31.8	31.8	31.8	71	23.5	1	3	68	0.00	30.241 
23:45	31.8	31.8	31.8	71	23.5	2	4	90	0.00	30.230 
23:50	31.8	31.8	31.8	72	23.8	2	6	90	0.00	30.230 
23:55	31.8	31.8	31.8	72	23.8	1	4	90	0.00	30.230 

CoCoRaHS
IN-AL-39
A2 Web Hosting
Creative Commons License
GoDaddy
search engine by freefind advanced

loaded 2018-11-20 03:38:22 • last modified 2010-11-18 10:43:29
Privacy PolicyDisclaimer
• wx.awcolley.com is powered by PmWiki v.2002016 •
• all content (unless otherwise noted) © 2018 A W Colley